Data for 12/25/2009

Time Sea-Level Adjusted Pressure Absolute Pressure Temperature Relative Humidity Dew Point   
(mb) (inHg) (mb) (inHg) (C) (F) (%) (C) (F)
00:05 1022 30.18 851 25.13 -8.8 16.3 75 -12.4 9.7
00:10 1022 30.18 851 25.13 -8.4 16.9 73 -12.4 9.6
00:15 1022 30.18 851 25.13 -8 17.5 72 -12.2 10
00:20 1022 30.18 851 25.13 -8.2 17.2 73 -12.2 10
00:25 1021 30.15 851 25.13 -8.3 17.1 73 -12.2 10
00:30 1021 30.15 851 25.13 -8.2 17.3 74 -12 10.4
00:35 1021 30.15 851 25.13 -7.9 17.8 71 -12.3 9.9
00:40 1021 30.15 851 25.13 -7.8 18 74 -11.7 11
00:45 1021 30.15 851 25.13 -7.6 18.4 73 -11.6 11.2
00:50 1022 30.18 851 25.13 -7.5 18.5 73 -11.6 11.1
00:55 1021 30.15 851 25.13 -7.4 18.7 72 -11.6 11.1
01:00 1022 30.18 851 25.13 -7.2 19.1 73 -11.3 11.7
01:05 1022 30.18 851 25.13 -7 19.3 72 -11.3 11.6
01:10 1022 30.18 851 25.13 -7.1 19.2 70 -11.6 11.1
01:15 1022 30.18 851 25.13 -6.8 19.7 69 -11.6 11.2
01:20 1022 30.18 851 25.13 -6.7 19.9 67 -11.8 10.8
01:25 1022 30.18 851 25.13 -6.6 20 65 -12.2 10
01:30 1022 30.18 851 25.13 -6.5 20.4 63 -12.4 9.7
01:35 1022 30.18 851 25.13 -6.3 20.6 70 -11 12.3
01:40 1022 30.18 851 25.13 -7.2 19.1 70 -11.7 10.9
01:45 1022 30.18 851 25.13 -7.3 18.9 76 -10.8 12.5
01:50 1022 30.18 851 25.13 -7.6 18.4 77 -10.9 12.3
01:55 1022 30.18 851 25.13 -7.7 18.1 77 -11 12.1
02:00 1022 30.18 851 25.13 -7.6 18.3 75 -11.4 11.6
02:05 1022 30.18 851 25.13 -7.2 19.1 74 -11.1 12
02:10 1022 30.18 851 25.13 -7 19.4 74 -11 12.3
02:15 1022 30.18 851 25.13 -6.9 19.6 72 -11.1 12.1
02:20 1022 30.18 851 25.13 -7 19.3 73 -11.1 12.1
02:25 1022 30.18 851 25.13 -7 19.4 74 -10.8 12.5
02:30 1022 30.18 851 25.13 -6.9 19.5 76 -10.5 13.1
02:35 1022 30.18 851 25.13 -7.1 19.1 75 -10.8 12.5
02:40 1022 30.18 851 25.13 -6.8 19.7 70 -11.4 11.5
02:45 1022 30.18 851 25.13 -6.7 19.9 70 -11.4 11.6
02:50 1022 30.18 851 25.13 -6.6 20.2 67 -11.8 10.8
02:55 1022 30.18 851 25.13 -6.4 20.5 66 -11.8 10.7
03:00 1022 30.18 851 25.13 -6.3 20.6 67 -11.5 11.2
03:05 1022 30.18 851 25.13 -6.4 20.5 62 -12.5 9.4
03:10 1022 30.18 851 25.13 -6.2 20.9 64 -11.8 10.7
03:15 1022 30.18 851 25.13 -6 21.2 62 -12.2 10
03:20 1022 30.18 851 25.13 -5.9 21.3 62 -12.2 10.1
03:25 1022 30.18 851 25.13 -5.8 21.5 59 -12.5 9.5
03:30 1022 30.18 851 25.13 -5.7 21.8 60 -12.2 10
03:35 1022 30.18 851 25.13 -5.6 21.9 58 -12.7 9.2
03:40 1022 30.18 851 25.13 -5.6 22 57 -12.7 9.1
03:45 1022 30.18 851 25.13 -5.5 22.1 57 -12.7 9.2
03:50 1022 30.18 851 25.13 -5.5 22.1 57 -12.7 9.2
03:55 1022 30.18 851 25.13 -5.5 22.1 59 -12.3 9.8
04:00 1022 30.18 851 25.13 -5.6 22 58 -12.5 9.5
04:05 1022 30.18 851 25.13 -5.6 21.9 59 -12.4 9.8
04:10 1022 30.18 851 25.13 -5.6 21.9 58 -12.5 9.5
04:15 1022 30.18 851 25.13 -5.7 21.8 61 -12.1 10.1
04:20 1022 30.18 851 25.13 -5.8 21.6 60 -12.3 9.9
04:25 1022 30.18 851 25.13 -5.8 21.6 61 -12.2 10
04:30 1022 30.18 851 25.13 -5.8 21.5 64 -11.6 11.2
04:35 1022 30.18 851 25.13 -5.9 21.4 66 -11.4 11.6
04:40 1022 30.18 851 25.13 -6 21.2 64 -11.8 10.8
04:45 1022 30.18 851 25.13 -6 21.2 64 -11.8 10.7
04:50 1022 30.18 851 25.13 -6 21.1 69 -10.8 12.5
04:55 1022 30.18 851 25.13 -6.3 20.7 69 -11.1 12
05:00 1022 30.18 851 25.13 -6.4 20.6 69 -11.1 12
05:05 1022 30.18 851 25.13 -6.4 20.4 69 -11.3 11.7
05:10 1022 30.18 851 25.13 -6.5 20.2 72 -10.8 12.5
05:15 1022 30.18 851 25.13 -6.7 20 73 -10.7 12.7
05:20 1022 30.18 851 25.13 -7 19.4 76 -10.6 13
05:25 1022 30.18 851 25.13 -7.6 18.3 78 -10.9 12.4
05:30 1022 30.18 851 25.13 -7.9 17.8 79 -10.9 12.3
05:35 1022 30.18 851 25.13 -7.8 18 77 -11.2 11.9
05:40 1022 30.18 851 25.13 -7.6 18.3 77 -10.9 12.3
05:45 1022 30.18 851 25.13 -7.6 18.4 77 -11 12.2
05:50 1022 30.18 851 25.13 -7.5 18.5 79 -10.6 12.9
05:55 1022 30.18 851 25.13 -7.6 18.3 81 -10.4 13.4
06:00 1022 30.18 851 25.13 -7.9 17.7 81 -10.6 12.9
06:05 1022 30.18 851 25.13 -8.1 17.5 79 -11.1 12.1
06:10 1022 30.18 851 25.13 -8 17.6 77 -11.3 11.6
06:15 1022 30.18 851 25.13 -7.8 17.9 77 -11.2 11.9
06:20 1022 30.18 851 25.13 -7.6 18.3 76 -11.1 12
06:25 1022 30.18 851 25.13 -7.5 18.6 75 -11.3 11.7
06:30 1022 30.18 851 25.13 -7.5 18.5 75 -11.2 11.8
06:35 1022 30.18 851 25.13 -7.3 18.8 74 -11.2 11.9
06:40 1022 30.18 851 25.13 -7.2 19.1 75 -11 12.3
06:45 1022 30.18 851 25.13 -7.1 19.2 75 -10.9 12.4
06:50 1022 30.18 851 25.13 -7 19.4 73 -11.1 12.1
06:55 1022 30.18 851 25.13 -7.1 19.2 77 -10.5 13.1
07:00 1022 30.18 851 25.13 -7.2 19 72 -11.4 11.4
07:05 1022 30.18 851 25.13 -7 19.4 72 -11.3 11.7
07:10 1022 30.18 851 25.13 -6.7 19.9 71 -11.1 12
07:15 1022 30.18 851 25.13 -6.7 20 71 -11 12.1
07:20 1022 30.18 851 25.13 -6.7 19.9 72 -10.9 12.3
07:25 1022 30.18 851 25.13 -6.8 19.8 75 -10.5 13.1
07:30 1022 30.18 851 25.13 -6.8 19.7 77 -10.3 13.5
07:35 1022 30.18 851 25.13 -6.9 19.5 77 -10.3 13.5
07:40 1022 30.18 851 25.13 -6.9 19.6 76 -10.4 13.2
07:45 1022 30.18 851 25.13 -6.8 19.7 76 -10.4 13.3
07:50 1022 30.18 851 25.13 -7 19.4 79 -10.1 13.8
07:55 1022 30.18 851 25.13 -7.4 18.6 82 -10 13.9
08:00 1022 30.18 851 25.13 -7.6 18.3 82 -10.2 13.6
08:05 1022 30.18 851 25.13 -7.7 18.2 80 -10.5 13.1
08:10 1022 30.18 851 25.13 -7.2 19.1 78 -10.4 13.4
08:15 1022 30.18 851 25.13 -6.9 19.6 78 -10 14
08:20 1022 30.18 851 25.13 -6.8 19.8 79 -9.9 14.2
08:25 1022 30.18 851 25.13 -6.8 19.8 80 -9.7 14.6
08:30 1022 30.18 851 25.13 -6.8 19.8 82 -9.4 15.2
08:35 1022 30.18 851 25.13 -6.7 19.9 83 -9.2 15.5
08:40 1022 30.18 852 25.16 -6.7 20 83 -9.1 15.6
08:45 1022 30.18 852 25.16 -6.7 20 84 -9 15.8
08:50 1022 30.18 852 25.16 -6.7 19.9 85 -8.8 16.1
08:55 1022 30.18 852 25.16 -6.7 19.9 86 -8.8 16.2
09:00 1022 30.18 852 25.16 -6.7 19.9 86 -8.7 16.3
09:05 1022 30.18 852 25.16 -6.7 20 85 -8.8 16.2
09:10 1022 30.18 852 25.16 -6.6 20.2 85 -8.8 16.2
09:15 1022 30.18 852 25.16 -6.4 20.4 84 -8.7 16.3
09:20 1022 30.18 852 25.16 -6.6 20.2 84 -8.8 16.2
09:25 1022 30.18 852 25.16 -6.8 19.8 85 -8.8 16.1
09:30 1023 30.21 852 25.16 -6.4 20.4 84 -8.7 16.3
09:35 1022 30.18 852 25.16 -6.3 20.7 83 -8.7 16.4
09:40 1022 30.18 852 25.16 -6.2 20.8 84 -8.5 16.6
09:45 1023 30.21 852 25.16 -6.2 20.9 83 -8.6 16.5
09:50 1023 30.21 852 25.16 -6.1 21 83 -8.5 16.7
09:55 1023 30.21 852 25.16 -6.1 21.1 82 -8.6 16.5
10:00 1023 30.21 852 25.16 -5.8 21.5 82 -8.5 16.8
10:05 1023 30.21 852 25.16 -5.9 21.4 82 -8.5 16.7
10:10 1023 30.21 852 25.16 -5.9 21.4 82 -8.5 16.8
10:15 1023 30.21 852 25.16 -5.6 21.9 79 -8.6 16.5
10:20 1023 30.21 852 25.16 -5.3 22.4 79 -8.4 16.8
10:25 1023 30.21 852 25.16 -5.1 22.7 78 -8.5 16.8
10:30 1023 30.21 852 25.16 -4.9 23.3 76 -8.4 16.9
10:35 1023 30.21 852 25.16 -4.7 23.6 75 -8.5 16.6
10:40 1023 30.21 852 25.16 -4.7 23.6 74 -8.6 16.5
10:45 1023 30.21 852 25.16 -4.7 23.6 75 -8.5 16.7
10:50 1023 30.21 852 25.16 -5.2 22.7 78 -8.5 16.7
10:55 1023 30.21 852 25.16 -5.1 22.8 74 -9.1 15.7
11:00 1023 30.21 852 25.16 -4.7 23.6 73 -8.9 16
11:05 1023 30.21 852 25.16 -4.6 23.7 73 -8.7 16.4
11:10 1023 30.21 852 25.16 -4.5 23.8 74 -8.5 16.6
11:15 1023 30.21 852 25.16 -4.5 24 74 -8.4 16.8
11:20 1023 30.21 852 25.16 -4.6 23.8 74 -8.5 16.7
11:25 1023 30.21 852 25.16 -4.6 23.7 74 -8.5 16.6
11:30 1023 30.21 852 25.16 -4.5 23.9 74 -8.5 16.6
11:35 1023 30.21 852 25.16 -4.4 24 73 -8.5 16.7
11:40 1023 30.21 852 25.16 -4.4 24.1 74 -8.4 16.8
11:45 1023 30.21 852 25.16 -4.3 24.2 73 -8.4 16.8
11:50 1023 30.21 852 25.16 -4.2 24.5 72 -8.4 16.8
11:55 1023 30.21 852 25.16 -4.4 24.1 72 -8.7 16.4
12:00 1023 30.21 852 25.16 -4.5 23.9 72 -8.8 16.1
12:05 1023 30.21 852 25.16 -4.5 23.9 72 -8.7 16.3
12:10 1023 30.21 852 25.16 -4.7 23.5 73 -8.8 16.2
12:15 1023 30.21 852 25.16 -5.3 22.4 75 -9.1 15.6
12:20 1023 30.21 852 25.16 -5 23.1 71 -9.5 14.9
12:25 1023 30.21 852 25.16 -5 23.1 71 -9.5 15
12:30 1023 30.21 852 25.16 -4.3 24.2 68 -9.4 15.1
12:35 1023 30.21 852 25.16 -3.9 24.9 66 -9.4 15
12:40 1023 30.21 852 25.16 -4 24.7 66 -9.5 14.9
12:45 1023 30.21 852 25.16 -4 24.7 65 -9.6 14.7
12:50 1023 30.21 852 25.16 -3.7 25.3 62 -10 13.9
12:55 1023 30.21 852 25.16 -3.5 25.7 61 -9.9 14.2
13:00 1023 30.21 852 25.16 -3.6 25.5 62 -9.8 14.4
13:05 1023 30.21 852 25.16 -3.7 25.4 63 -9.7 14.5
13:10 1023 30.21 852 25.16 -3.9 25 63 -9.9 14.2
13:15 1023 30.21 852 25.16 -4.5 23.9 66 -9.9 14.2
13:20 1023 30.21 852 25.16 -4.2 24.4 66 -9.7 14.5
13:25 1023 30.21 852 25.16 -4.1 24.7 68 -9.1 15.6
13:30 1023 30.21 852 25.16 -4.6 23.7 69 -9.5 15
13:35 1023 30.21 852 25.16 -4.6 23.7 69 -9.5 15
13:40 1023 30.21 852 25.16 -4.5 24 69 -9.3 15.3
13:45 1023 30.21 852 25.16 -4.4 24.1 68 -9.4 15.1
13:50 1023 30.21 852 25.16 -4.3 24.3 67 -9.6 14.7
13:55 1023 30.21 852 25.16 -4.3 24.3 67 -9.6 14.7
14:00 1023 30.21 852 25.16 -4.5 23.9 65 -10.2 13.7
14:05 1023 30.21 852 25.16 -5 22.9 67 -10.2 13.7
14:10 1023 30.21 852 25.16 -5.4 22.3 68 -10.3 13.4
14:15 1023 30.21 852 25.16 -5 23 66 -10.4 13.2
14:20 1023 30.21 852 25.16 -4.4 24 62 -10.7 12.7
14:25 1023 30.21 852 25.16 -3.9 25 60 -10.6 13
14:30 1023 30.21 852 25.16 -3.9 25 60 -10.6 12.9
14:35 1023 30.21 852 25.16 -3.6 25.5 58 -10.7 12.7
14:40 1023 30.21 852 25.16 -3.3 26 57 -10.7 12.8
14:45 1023 30.21 852 25.16 -2.7 27.1 56 -10.3 13.5
14:50 1023 30.21 852 25.16 -2.6 27.3 58 -9.8 14.3
14:55 1023 30.21 852 25.16 -3.4 25.9 61 -9.9 14.3
15:00 1023 30.21 852 25.16 -3.3 26.1 60 -10.1 13.9
15:05 1023 30.21 852 25.16 -3.1 26.4 60 -9.8 14.4
15:10 1023 30.21 852 25.16 -3.4 26 61 -9.7 14.5
15:15 1023 30.21 853 25.19 -3.5 25.8 62 -9.7 14.5
15:20 1023 30.21 853 25.19 -3.9 25 64 -9.7 14.5
15:25 1023 30.21 853 25.19 -4.1 24.6 64 -9.9 14.2
15:30 1023 30.21 853 25.19 -4 24.8 64 -9.8 14.3
15:35 1023 30.21 853 25.19 -4.1 24.6 63 -10 13.9
15:40 1023 30.21 853 25.19 -4.3 24.2 65 -10 14
15:45 1023 30.21 853 25.19 -4.1 24.6 63 -10.1 13.8
15:50 1023 30.21 853 25.19 -4.2 24.5 65 -9.9 14.2
15:55 1023 30.21 853 25.19 -4.8 23.3 67 -10 13.9
16:00 1023 30.21 853 25.19 -4.8 23.3 66 -10.2 13.6
16:05 1024 30.24 853 25.19 -4.9 23.2 66 -10.2 13.7
16:10 1024 30.24 853 25.19 -5.1 22.8 67 -10.4 13.3
16:15 1024 30.24 853 25.19 -6.1 21 72 -10.4 13.3
16:20 1024 30.24 853 25.19 -6.5 20.3 73 -10.6 12.9
16:25 1024 30.24 853 25.19 -6.4 20.4 72 -10.7 12.7
16:30 1024 30.24 853 25.19 -6.4 20.5 72 -10.7 12.8
16:35 1024 30.24 853 25.19 -6.5 20.3 73 -10.6 12.9
16:40 1024 30.24 853 25.19 -6.5 20.3 73 -10.6 12.8
16:45 1024 30.24 853 25.19 -6.2 20.8 72 -10.5 13.1
16:50 1024 30.24 853 25.19 -6.1 21.1 72 -10.4 13.4
16:55 1024 30.24 853 25.19 -6 21.2 71 -10.3 13.4
17:00 1024 30.24 853 25.19 -5.9 21.4 72 -10.2 13.6
17:05 1024 30.24 853 25.19 -5.9 21.4 71 -10.3 13.4
17:10 1024 30.24 853 25.19 -6.1 21 74 -10 13.9
17:15 1024 30.24 853 25.19 -6.2 20.8 74 -10.2 13.6
17:20 1024 30.24 853 25.19 -6.3 20.6 75 -10.1 13.8
17:25 1024 30.24 853 25.19 -6.5 20.3 75 -10.2 13.6
17:30 1024 30.24 853 25.19 -6.6 20.1 77 -9.9 14.1
17:35 1024 30.24 853 25.19 -6.6 20.1 77 -10 14
17:40 1024 30.24 853 25.19 -6.6 20.1 77 -10 13.9
17:45 1024 30.24 853 25.19 -6.6 20.2 77 -9.9 14.1
17:50 1024 30.24 853 25.19 -6.5 20.3 77 -9.8 14.3
17:55 1024 30.24 853 25.19 -6.4 20.5 78 -9.7 14.6
18:00 1024 30.24 853 25.19 -6.2 20.9 77 -9.6 14.7
18:05 1024 30.24 853 25.19 -5.8 21.5 73 -9.8 14.3
18:10 1024 30.24 853 25.19 -5.8 21.6 73 -9.9 14.1
18:15 1024 30.24 853 25.19 -6 21.3 74 -9.9 14.2
18:20 1024 30.24 853 25.19 -6 21.1 76 -9.6 14.8
18:25 1024 30.24 853 25.19 -6.1 21.1 76 -9.6 14.8
18:30 1024 30.24 853 25.19 -6.1 21 76 -9.6 14.7
18:35 1024 30.24 853 25.19 -6.2 20.9 77 -9.7 14.6
18:40 1024 30.24 853 25.19 -6.1 20.9 76 -9.7 14.6
18:45 1024 30.24 853 25.19 -6.2 20.9 76 -9.8 14.4
18:50 1024 30.24 853 25.19 -6.6 20.2 79 -9.7 14.6
18:55 1024 30.24 853 25.19 -6.7 19.9 79 -9.8 14.3
19:00 1024 30.24 853 25.19 -6.7 19.9 77 -10.2 13.7
19:05 1024 30.24 853 25.19 -6.5 20.3 76 -10 14
19:10 1024 30.24 853 25.19 -6.4 20.6 74 -10.2 13.7
19:15 1024 30.24 853 25.19 -6.3 20.7 74 -10.2 13.7
19:20 1024 30.24 853 25.19 -6.2 20.9 76 -9.7 14.5
19:25 1024 30.24 853 25.19 -6.3 20.7 76 -9.8 14.3
19:30 1024 30.24 853 25.19 -6.2 20.9 75 -9.9 14.2
19:35 1024 30.24 853 25.19 -6.2 20.8 75 -10 14.1
19:40 1024 30.24 853 25.19 -6.1 21 75 -9.8 14.3
19:45 1024 30.24 853 25.19 -6.1 21 74 -10 13.9
19:50 1024 30.24 853 25.19 -6.1 21.1 74 -10 13.9
19:55 1024 30.24 853 25.19 -6 21.3 73 -10.1 13.8
20:00 1024 30.24 853 25.19 -6 21.3 73 -10.1 13.8
20:05 1024 30.24 853 25.19 -6 21.2 73 -10.1 13.8
20:10 1024 30.24 853 25.19 -6 21.3 72 -10.2 13.6
20:15 1024 30.24 853 25.19 -6.1 21 72 -10.4 13.4
20:20 1024 30.24 853 25.19 -6.5 20.2 75 -10.2 13.6
20:25 1024 30.24 853 25.19 -6.7 19.9 76 -10.3 13.4
20:30 1024 30.24 853 25.19 -6.8 19.7 76 -10.3 13.4
20:35 1024 30.24 853 25.19 -7 19.4 79 -10.1 13.9
20:40 1024 30.24 853 25.19 -7.3 18.9 83 -9.7 14.5
20:45 1024 30.24 853 25.19 -7.7 18.2 83 -10.1 13.8
20:50 1024 30.24 853 25.19 -7.9 17.8 84 -10.2 13.7
20:55 1024 30.24 853 25.19 -8.1 17.4 83 -10.5 13.1
21:00 1024 30.24 853 25.19 -8.1 17.4 83 -10.6 12.9
21:05 1024 30.24 853 25.19 -8.1 17.5 82 -10.7 12.8
21:10 1024 30.24 853 25.19 -8.1 17.4 81 -10.8 12.6
21:15 1024 30.24 853 25.19 -8.2 17.3 82 -10.7 12.7
21:20 1024 30.24 853 25.19 -8.3 17.1 82 -10.9 12.5
21:25 1024 30.24 853 25.19 -8.3 17.1 81 -10.9 12.3
21:30 1024 30.24 853 25.19 -8.2 17.3 80 -11 12.2
21:35 1024 30.24 853 25.19 -8.2 17.2 81 -11 12.2
21:40 1024 30.24 853 25.19 -8.4 16.9 80 -11.3 11.7
21:45 1024 30.24 853 25.19 -8.8 16.2 82 -11.3 11.7
21:50 1024 30.24 853 25.19 -9 15.7 86 -11 12.2
21:55 1024 30.24 853 25.19 -9.3 15.2 86 -11.3 11.7
22:00 1024 30.24 853 25.19 -9.5 15 88 -11.1 12
22:05 1024 30.24 853 25.19 -9 15.8 87 -10.8 12.5
22:10 1024 30.24 853 25.19 -8.7 16.3 86 -10.7 12.7
22:15 1024 30.24 853 25.19 -8.6 16.6 85 -10.6 12.9
22:20 1024 30.24 853 25.19 -8.5 16.7 85 -10.6 13
22:25 1024 30.24 853 25.19 -8.5 16.6 83 -10.9 12.5
22:30 1024 30.24 853 25.19 -8.6 16.5 84 -10.8 12.5
22:35 1024 30.24 853 25.19 -8.9 16 85 -10.9 12.3
22:40 1024 30.24 853 25.19 -8.8 16.2 84 -11 12.2
22:45 1024 30.24 853 25.19 -8.7 16.4 84 -10.9 12.3
22:50 1024 30.24 853 25.19 -8.6 16.5 83 -11 12.2
22:55 1024 30.24 853 25.19 -8.3 17 81 -11 12.2
23:00 1024 30.24 853 25.19 -8.4 16.8 81 -11.1 12.1
23:05 1024 30.24 853 25.19 -8.7 16.3 84 -11 12.1
23:10 1024 30.24 853 25.19 -8.9 16 83 -11.2 11.8
23:15 1024 30.24 854 25.22 -9.2 15.5 86 -11.1 12.1
23:20 1024 30.24 854 25.22 -9.1 15.7 89 -10.6 13
23:25 1024 30.24 853 25.19 -8.6 16.5 85 -10.8 12.6
23:30 1024 30.24 853 25.19 -8.5 16.8 84 -10.6 12.8
23:35 1024 30.24 853 25.19 -8.4 16.8 82 -10.9 12.4
23:40 1024 30.24 853 25.19 -8.7 16.3 84 -10.9 12.3
23:45 1024 30.24 853 25.19 -8.9 16 85 -11 12.3
23:50 1024 30.24 853 25.19 -9.3 15.2 86 -11.2 11.8
23:55 1024 30.24 853 25.19 -9.2 15.5 85 -11.3 11.6
24:00 1024 30.24 853 25.19 -9.1 15.7 85 -11.2 11.8